Time;durP1;ratioP1;P1;durP2;ratioP2;P2;SDS_P1;SDS_P2;PMS_P1;PMS_P2;Temp;Humidity;BMP_temperature;BMP_pressure;BME280_temperature;BME280_humidity;BME280_pressure;Samples;Min_cycle;Max_cycle;Signal;HPM_P1;HPM_P2
2022/12/13 00:01:23;;;;;;;73.43;39.97;;;-2.70;99.90;;;;;;5082211;28;20059;-78
2022/12/13 00:03:51;;;;;;;77.50;41.42;;;-2.70;99.90;;;;;;5064764;28;20123;-78
2022/12/13 00:06:16;;;;;;;79.55;41.97;;;-2.80;99.90;;;;;;5061472;28;20040;-78
2022/12/13 00:08:42;;;;;;;79.00;41.13;;;-2.80;99.90;;;;;;5088095;28;20124;-78
2022/12/13 00:11:11;;;;;;;78.78;41.58;;;-2.80;99.90;;;;;;5086522;28;20395;-78
2022/12/13 00:13:38;;;;;;;72.45;40.70;;;-2.80;99.90;;;;;;5067421;28;20040;-79
2022/12/13 00:16:06;;;;;;;76.13;40.95;;;-2.80;99.90;;;;;;5088816;28;20514;-78
2022/12/13 00:18:32;;;;;;;71.57;39.13;;;-2.80;99.90;;;;;;5082655;28;20048;-78
2022/12/13 00:20:58;;;;;;;77.55;41.63;;;-2.90;99.90;;;;;;5066417;28;20115;-78
2022/12/13 00:23:23;;;;;;;80.32;40.78;;;-2.90;99.90;;;;;;5079603;28;20179;-78
2022/12/13 00:25:49;;;;;;;79.97;40.72;;;-2.90;99.90;;;;;;5070527;28;20036;-78
2022/12/13 00:28:15;;;;;;;74.72;38.85;;;-3.00;99.90;;;;;;5086054;28;20502;-78
2022/12/13 00:30:41;;;;;;;76.18;40.28;;;-3.00;99.90;;;;;;5085261;28;20047;-78
2022/12/13 00:33:07;;;;;;;75.13;39.38;;;-3.00;99.90;;;;;;5063374;28;20036;-78
2022/12/13 00:35:38;;;;;;;76.43;40.28;;;-3.00;99.90;;;;;;5084851;28;20040;-78
2022/12/13 00:38:03;;;;;;;77.13;40.92;;;-3.00;99.90;;;;;;5067155;28;20552;-78
2022/12/13 00:40:29;;;;;;;75.47;39.50;;;-3.00;99.90;;;;;;5084315;28;20126;-78
2022/12/13 00:42:55;;;;;;;70.60;39.20;;;-3.00;99.90;;;;;;5066639;28;20772;-78
2022/12/13 00:45:20;;;;;;;78.60;40.78;;;-3.00;99.90;;;;;;5066943;28;20040;-78
2022/12/13 00:47:46;;;;;;;78.03;40.50;;;-3.00;99.90;;;;;;5084776;28;20067;-78
2022/12/13 00:50:12;;;;;;;72.80;41.17;;;-3.00;99.90;;;;;;5085013;28;20491;-78
2022/12/13 00:52:38;;;;;;;73.00;37.75;;;-3.00;99.90;;;;;;5063927;28;20060;-78
2022/12/13 00:55:04;;;;;;;77.22;39.30;;;-3.00;99.90;;;;;;5068257;28;20047;-78
2022/12/13 00:57:29;;;;;;;74.22;40.42;;;-3.10;99.90;;;;;;5086407;28;20057;-78
2022/12/13 00:59:55;;;;;;;79.15;42.53;;;-3.10;99.90;;;;;;5086384;28;20506;-77
2022/12/13 01:02:21;;;;;;;81.00;40.92;;;-3.10;99.90;;;;;;5066882;28;20117;-78
2022/12/13 01:04:49;;;;;;;78.30;40.08;;;-3.10;99.90;;;;;;5085633;28;20501;-78
2022/12/13 01:07:15;;;;;;;88.93;44.00;;;-3.10;99.90;;;;;;5066147;28;20050;-78
2022/12/13 01:09:41;;;;;;;78.28;39.55;;;-3.10;99.90;;;;;;5085727;28;20395;-78
2022/12/13 01:12:09;;;;;;;72.07;38.13;;;-3.10;99.90;;;;;;5082836;28;20040;-78
2022/12/13 01:14:36;;;;;;;76.13;40.15;;;-3.10;99.90;;;;;;5064368;28;20856;-78
2022/12/13 01:17:02;;;;;;;79.28;38.47;;;-3.20;99.90;;;;;;5084472;28;20048;-77
2022/12/13 01:19:27;;;;;;;84.60;42.00;;;-3.20;99.90;;;;;;5068939;28;20036;-78
2022/12/13 01:21:55;;;;;;;81.47;40.80;;;-3.10;99.90;;;;;;5088713;28;20044;-77
2022/12/13 01:24:23;;;;;;;84.78;39.55;;;-3.10;99.90;;;;;;5066132;28;20043;-78
2022/12/13 01:26:49;;;;;;;85.13;40.90;;;-3.10;99.90;;;;;;5084205;28;20044;-77
2022/12/13 01:29:16;;;;;;;77.65;40.90;;;-3.10;99.90;;;;;;5083586;28;20641;-78
2022/12/13 01:31:42;;;;;;;83.72;40.42;;;-3.20;99.90;;;;;;5057961;28;20078;-79
2022/12/13 01:34:09;;;;;;;77.70;40.22;;;-3.20;99.90;;;;;;5083334;28;20079;-78
2022/12/13 01:36:36;;;;;;;82.18;42.15;;;-3.10;99.90;;;;;;5067936;28;20075;-78
2022/12/13 01:39:02;;;;;;;81.50;42.75;;;-3.10;99.90;;;;;;5064686;28;20607;-78
2022/12/13 01:41:29;;;;;;;81.75;43.97;;;-3.10;99.90;;;;;;5096477;27;20513;-78
2022/12/13 01:44:01;;;;;;;82.38;42.80;;;-3.00;99.90;;;;;;5096033;28;20044;-78
2022/12/13 01:46:29;;;;;;;84.32;42.75;;;-3.00;99.90;;;;;;5087476;28;20035;-78
2022/12/13 01:49:13;;;;;;;84.60;44.50;;;-2.90;99.90;;;;;;5095575;28;20047;-78
2022/12/13 01:51:42;;;;;;;85.00;44.38;;;-2.90;99.90;;;;;;5064396;28;20052;-77
2022/12/13 01:54:11;;;;;;;82.93;42.85;;;-2.90;99.90;;;;;;5062395;28;21268;-78
2022/12/13 01:56:42;;;;;;;77.78;42.33;;;-2.90;99.90;;;;;;5080436;28;20054;-78
2022/12/13 01:59:10;;;;;;;74.50;40.15;;;-2.80;99.90;;;;;;5084015;28;20487;-78
2022/12/13 02:01:36;;;;;;;78.57;42.03;;;-2.80;99.90;;;;;;5067019;28;20040;-79
2022/12/13 02:04:03;;;;;;;76.00;41.47;;;-2.80;99.90;;;;;;5065869;28;20047;-78
2022/12/13 02:06:39;;;;;;;76.53;40.58;;;-2.80;99.90;;;;;;5085690;28;20386;-78
2022/12/13 02:09:06;;;;;;;79.72;42.17;;;-2.80;99.90;;;;;;5065653;28;20063;-78
2022/12/13 02:11:35;;;;;;;79.18;42.28;;;-2.80;99.90;;;;;;5081155;28;20045;-77
2022/12/13 02:14:01;;;;;;;81.22;41.38;;;-2.70;99.90;;;;;;5094729;28;20067;-78
2022/12/13 02:16:53;;;;;;;74.30;41.22;;;-2.70;99.90;;;;;;5083853;28;20711;-78
2022/12/13 02:19:40;;;;;;;77.30;41.65;;;-2.80;99.90;;;;;;5096664;27;20491;-78
2022/12/13 02:22:24;;;;;;;77.78;40.45;;;-2.80;99.90;;;;;;5065016;28;20044;-78
2022/12/13 02:25:19;;;;;;;77.07;41.17;;;-2.80;99.90;;;;;;5060419;28;20727;-78
2022/12/13 02:27:56;;;;;;;78.63;41.78;;;-2.80;99.90;;;;;;5061973;28;20071;-77
2022/12/13 02:30:28;;;;;;;79.00;39.13;;;-2.90;99.90;;;;;;5062844;28;20186;-78
2022/12/13 02:33:24;;;;;;;71.55;41.65;;;-3.00;99.90;;;;;;5062655;28;20540;-78
2022/12/13 02:36:05;;;;;;;71.10;38.20;;;-3.00;99.90;;;;;;5062135;28;20536;-78
2022/12/13 02:38:49;;;;;;;79.70;41.47;;;-3.00;99.90;;;;;;5064734;28;20040;-78
2022/12/13 02:41:19;;;;;;;81.15;42.17;;;-3.10;99.90;;;;;;5081203;28;20115;-77
2022/12/13 02:44:03;;;;;;;75.53;40.08;;;-3.10;99.90;;;;;;5082544;28;20051;-78
2022/12/13 02:46:33;;;;;;;72.28;39.53;;;-3.20;99.90;;;;;;5098393;28;20044;-78
2022/12/13 02:49:00;;;;;;;72.45;39.45;;;-3.20;99.90;;;;;;5052548;28;20065;-78
2022/12/13 02:51:27;;;;;;;71.88;38.47;;;-3.20;99.90;;;;;;5039816;28;20191;-78
2022/12/13 02:53:53;;;;;;;70.85;39.55;;;-3.30;99.90;;;;;;5041521;28;20053;-78
2022/12/13 02:56:18;;;;;;;70.10;39.70;;;-3.30;99.90;;;;;;5039975;28;20518;-78
2022/12/13 02:58:49;;;;;;;75.57;41.17;;;-3.30;99.90;;;;;;5044321;28;20049;-78
2022/12/13 03:01:30;;;;;;;75.18;39.92;;;-3.40;99.90;;;;;;5043684;28;20041;-78
2022/12/13 03:04:24;;;;;;;70.68;38.92;;;-3.40;99.90;;;;;;5044794;28;20503;-78
2022/12/13 03:07:18;;;;;;;70.85;37.88;;;-3.50;99.90;;;;;;5039080;28;20123;-78
2022/12/13 03:09:50;;;;;;;65.93;36.05;;;-3.50;99.90;;;;;;5044964;28;20493;-78
2022/12/13 03:15:38;;;;;;;79.25;38.80;;;-3.50;99.90;;;;;;5040501;28;20162;-78
2022/12/13 03:18:14;;;;;;;68.45;37.42;;;-3.50;99.90;;;;;;5037579;28;20072;-79
2022/12/13 03:20:46;;;;;;;70.85;37.75;;;-3.50;99.90;;;;;;5037950;28;20108;-78
2022/12/13 03:23:12;;;;;;;70.75;38.28;;;-3.50;99.90;;;;;;5043729;28;20045;-78
2022/12/13 03:25:38;;;;;;;70.65;37.55;;;-3.50;99.90;;;;;;5044073;28;20512;-78
2022/12/13 03:28:04;;;;;;;68.85;37.78;;;-3.60;99.90;;;;;;5039223;28;20080;-79
2022/12/13 03:30:32;;;;;;;78.18;41.22;;;-3.60;99.90;;;;;;5041008;28;20037;-78
2022/12/13 03:32:57;;;;;;;;;;;-3.60;99.90;;;;;;5041583;28;20045;-78
2022/12/13 03:35:23;;;;;;;69.57;35.85;;;-3.60;99.90;;;;;;5044121;28;20015;-79
2022/12/13 03:37:49;;;;;;;67.07;36.53;;;-3.70;99.90;;;;;;5043939;28;20103;-78
2022/12/13 03:40:16;;;;;;;70.50;38.00;;;-3.60;99.90;;;;;;5042951;28;20725;-79
2022/12/13 03:42:41;;;;;;;71.68;37.63;;;-3.70;99.90;;;;;;5037890;28;20725;-78
2022/12/13 03:45:08;;;;;;;70.20;39.00;;;-3.70;99.90;;;;;;5041922;28;20128;-79
2022/12/13 03:47:33;;;;;;;70.47;38.42;;;-3.80;99.90;;;;;;5041692;28;20048;-79
2022/12/13 03:49:59;;;;;;;65.35;36.85;;;-3.80;99.90;;;;;;5039381;28;20406;-80
2022/12/13 03:52:24;;;;;;;72.38;38.30;;;-3.80;99.90;;;;;;5043054;28;20144;-79
2022/12/13 03:54:50;;;;;;;69.65;39.08;;;-3.80;99.90;;;;;;5040628;28;20047;-79
2022/12/13 03:57:16;;;;;;;65.03;37.20;;;-3.90;99.90;;;;;;5041995;28;20062;-80
2022/12/13 03:59:41;;;;;;;73.28;38.97;;;-3.80;99.90;;;;;;5041565;28;20123;-80
2022/12/13 04:02:07;;;;;;;76.32;40.22;;;-3.80;99.90;;;;;;5043045;28;20128;-79
2022/12/13 04:04:32;;;;;;;75.30;41.05;;;-3.70;99.90;;;;;;5040705;28;20094;-80
2022/12/13 04:06:58;;;;;;;68.43;39.35;;;-3.60;99.90;;;;;;5046422;28;20128;-80
2022/12/13 04:09:24;;;;;;;74.50;39.08;;;-3.60;99.90;;;;;;5038119;28;20073;-80
2022/12/13 04:14:34;;;;;;;77.35;40.63;;;-3.50;99.90;;;;;;5036973;28;20045;-80
2022/12/13 04:16:59;;;;;;;76.40;42.55;;;-3.50;99.90;;;;;;5043512;28;20530;-80
2022/12/13 04:19:25;;;;;;;86.50;42.95;;;-3.40;99.90;;;;;;5041421;28;20040;-80
2022/12/13 04:21:54;;;;;;;81.18;42.35;;;-3.40;99.90;;;;;;5041749;28;20049;-80
2022/12/13 04:24:21;;;;;;;87.25;42.47;;;-3.40;99.90;;;;;;5038938;28;20043;-79
2022/12/13 04:26:46;;;;;;;85.35;41.88;;;-3.40;99.90;;;;;;5045995;28;20049;-80
2022/12/13 04:29:12;;;;;;;90.93;43.10;;;-3.40;99.90;;;;;;5044308;28;20094;-80
2022/12/13 04:31:38;;;;;;;75.38;39.63;;;-3.40;99.90;;;;;;5078856;28;20052;-80
2022/12/13 04:34:03;;;;;;;66.72;39.15;;;-3.40;99.90;;;;;;5043878;28;20053;-80
2022/12/13 04:36:29;;;;;;;70.82;39.88;;;-3.30;99.90;;;;;;5045477;28;20079;-80
2022/12/13 04:38:55;;;;;;;72.55;40.20;;;-3.30;99.90;;;;;;5046548;28;20048;-79
2022/12/13 04:41:21;;;;;;;72.75;39.20;;;-3.30;99.90;;;;;;5046437;28;20060;-80
2022/12/13 04:43:52;;;;;;;68.68;38.10;;;-3.30;99.90;;;;;;5039414;28;20135;-80
2022/12/13 04:46:21;;;;;;;71.95;40.65;;;-3.30;99.90;;;;;;5039970;28;20041;-80
2022/12/13 04:48:47;;;;;;;71.13;39.45;;;-3.30;99.90;;;;;;5042278;28;20118;-80
2022/12/13 04:51:15;;;;;;;73.53;39.22;;;-3.30;99.90;;;;;;5038769;28;20041;-80
2022/12/13 04:53:40;;;;;;;;;;;-3.30;99.90;;;;;;5039819;28;20040;-79
2022/12/13 04:56:06;;;;;;;71.35;36.58;;;-3.30;99.90;;;;;;5044556;28;19920;-80
2022/12/13 04:58:32;;;;;;;66.07;37.95;;;-3.40;99.90;;;;;;5044544;28;20049;-80
2022/12/13 05:00:57;;;;;;;70.63;37.92;;;-3.30;99.90;;;;;;5043467;28;20392;-80
2022/12/13 05:03:23;;;;;;;66.97;37.38;;;-3.40;99.90;;;;;;5044032;28;20443;-79
2022/12/13 05:05:49;;;;;;;67.78;37.35;;;-3.40;99.90;;;;;;5047803;28;20053;-80
2022/12/13 05:08:14;;;;;;;68.25;37.78;;;-3.40;99.90;;;;;;5044253;28;20032;-80
2022/12/13 05:10:40;;;;;;;71.97;38.67;;;-3.40;99.90;;;;;;5045130;28;20094;-80
2022/12/13 05:13:06;;;;;;;62.88;35.90;;;-3.40;99.90;;;;;;5042241;28;20065;-80
2022/12/13 05:15:33;;;;;;;66.65;36.03;;;-3.40;99.90;;;;;;5040709;28;20459;-80
2022/12/13 05:18:03;;;;;;;66.63;35.85;;;-3.40;99.90;;;;;;5045474;28;20500;-80
2022/12/13 05:20:29;;;;;;;58.88;33.50;;;-3.40;99.90;;;;;;5044165;28;20047;-80
2022/12/13 05:22:56;;;;;;;55.75;32.00;;;-3.40;99.90;;;;;;5039630;28;20041;-80
2022/12/13 05:25:25;;;;;;;52.42;30.50;;;-3.50;99.90;;;;;;5043239;28;20079;-80
2022/12/13 05:27:51;;;;;;;52.38;31.08;;;-3.40;99.90;;;;;;5046959;28;20052;-80
2022/12/13 05:30:17;;;;;;;49.88;31.35;;;-3.50;99.90;;;;;;5047019;28;20072;-80
2022/12/13 05:32:43;;;;;;;51.95;32.03;;;-3.50;99.90;;;;;;5044347;28;20136;-80
2022/12/13 05:35:09;;;;;;;50.65;32.78;;;-3.60;99.90;;;;;;5042482;28;20116;-80
2022/12/13 05:37:34;;;;;;;55.67;32.72;;;-3.60;99.90;;;;;;5043147;28;20495;-80
2022/12/13 05:40:01;;;;;;;51.38;31.75;;;-3.60;99.90;;;;;;5043174;28;20069;-80
2022/12/13 05:42:26;;;;;;;48.47;29.55;;;-3.60;99.90;;;;;;5039932;28;20071;-80
2022/12/13 05:44:52;;;;;;;50.17;31.27;;;-3.50;99.90;;;;;;5044975;28;20041;-80
2022/12/13 05:47:18;;;;;;;48.72;30.08;;;-3.60;99.90;;;;;;5045226;28;20087;-80
2022/12/13 05:49:43;;;;;;;49.92;29.63;;;-3.60;99.90;;;;;;5070506;28;20063;-80
2022/12/13 05:52:17;;;;;;;52.72;32.03;;;-3.60;99.90;;;;;;5083409;28;20405;-79
2022/12/13 05:54:42;;;;;;;50.60;30.60;;;-3.60;99.90;;;;;;5084549;28;20047;-80
2022/12/13 05:57:08;;;;;;;47.45;30.15;;;-3.50;99.90;;;;;;5087336;28;20119;-80
2022/12/13 05:59:34;;;;;;;47.28;29.70;;;-3.50;99.90;;;;;;5066356;28;20056;-80
2022/12/13 06:01:59;;;;;;;47.08;30.05;;;-3.50;99.90;;;;;;5065154;28;20109;-80
2022/12/13 06:04:25;;;;;;;49.17;30.27;;;-3.50;99.90;;;;;;5068295;28;20543;-80
2022/12/13 06:06:51;;;;;;;55.10;31.25;;;-3.50;99.90;;;;;;5066726;28;20134;-79
2022/12/13 06:09:17;;;;;;;52.97;31.63;;;-3.50;99.90;;;;;;5084295;28;20062;-80
2022/12/13 06:11:42;;;;;;;55.85;32.45;;;-3.60;99.90;;;;;;5083785;28;20051;-80
2022/12/13 06:14:08;;;;;;;56.20;32.95;;;-3.60;99.90;;;;;;5081172;28;20041;-80
2022/12/13 06:16:34;;;;;;;55.75;32.13;;;-3.60;99.90;;;;;;5068434;28;20083;-80
2022/12/13 06:18:59;;;;;;;48.47;29.33;;;-3.60;99.90;;;;;;5065145;28;20449;-80
2022/12/13 06:21:25;;;;;;;51.17;30.80;;;-3.70;99.90;;;;;;5064503;28;20044;-80
2022/12/13 06:23:51;;;;;;;47.85;29.77;;;-3.70;99.90;;;;;;5079784;28;20044;-80
2022/12/13 06:26:16;;;;;;;48.22;29.05;;;-3.70;99.90;;;;;;5064545;28;20036;-79
2022/12/13 06:28:42;;;;;;;49.78;29.65;;;-3.80;99.90;;;;;;5081716;28;20051;-77
2022/12/13 06:31:08;;;;;;;48.13;30.15;;;-3.80;99.90;;;;;;5060086;28;20118;-76
2022/12/13 06:33:37;;;;;;;49.03;31.63;;;-3.70;99.90;;;;;;5084947;28;20433;-77
2022/12/13 06:36:04;;;;;;;46.28;28.10;;;-3.70;99.90;;;;;;5062064;28;20418;-76
2022/12/13 06:38:30;;;;;;;45.28;27.95;;;-3.70;99.90;;;;;;5086366;28;20044;-76
2022/12/13 06:41:06;;;;;;;52.85;29.85;;;-3.70;99.90;;;;;;5098078;28;20040;-76
2022/12/13 06:43:32;;;;;;;48.40;29.23;;;-3.60;99.90;;;;;;5085288;28;20415;-77
2022/12/13 06:45:58;;;;;;;50.67;30.13;;;-3.60;99.90;;;;;;5067415;28;20032;-79
2022/12/13 06:48:25;;;;;;;49.83;30.23;;;-3.60;99.90;;;;;;5095505;28;20462;-76
2022/12/13 06:50:51;;;;;;;50.00;30.05;;;-3.60;99.90;;;;;;5076142;28;20129;-76
2022/12/13 06:53:17;;;;;;;50.88;31.05;;;-3.70;99.90;;;;;;5061305;28;20093;-76
2022/12/13 06:55:42;;;;;;;49.65;30.13;;;-3.70;99.90;;;;;;5087347;28;20032;-76
2022/12/13 06:58:08;;;;;;;48.50;30.27;;;-3.70;99.90;;;;;;5082247;28;20128;-75
2022/12/13 07:00:34;;;;;;;45.03;27.35;;;-3.60;99.90;;;;;;5058370;28;20480;-76
2022/12/13 07:03:00;;;;;;;45.53;27.95;;;-3.60;99.90;;;;;;5079868;28;20106;-75
2022/12/13 07:05:26;;;;;;;44.58;28.75;;;-3.60;99.90;;;;;;5086194;28;20048;-76
2022/12/13 07:07:52;;;;;;;45.17;28.10;;;-3.60;99.90;;;;;;5068396;28;20047;-75
2022/12/13 07:10:17;;;;;;;45.63;29.20;;;-3.60;99.90;;;;;;5063123;28;20048;-75
2022/12/13 07:12:43;;;;;;;46.75;28.85;;;-3.60;99.90;;;;;;5062819;28;20075;-75
2022/12/13 07:15:10;;;;;;;47.95;29.48;;;-3.60;99.90;;;;;;5068398;28;20485;-76
2022/12/13 07:17:35;;;;;;;46.45;29.02;;;-3.70;99.90;;;;;;5065867;28;20052;-76
2022/12/13 07:20:06;;;;;;;48.50;30.05;;;-3.70;99.90;;;;;;5086789;28;20139;-76
2022/12/13 07:22:32;;;;;;;49.67;31.52;;;-3.70;99.90;;;;;;5065222;28;20055;-76
2022/12/13 07:24:58;;;;;;;52.85;31.98;;;-3.70;99.90;;;;;;5096304;28;20048;-76
2022/12/13 07:27:24;;;;;;;50.63;30.40;;;-3.70;99.90;;;;;;5079348;28;20070;-76
2022/12/13 07:29:49;;;;;;;50.50;30.90;;;-3.70;99.90;;;;;;5084790;28;20110;-76
2022/12/13 07:32:15;;;;;;;53.75;32.08;;;-3.70;99.90;;;;;;5058960;28;20078;-76
2022/12/13 07:34:41;;;;;;;49.85;29.90;;;-3.70;99.90;;;;;;5066033;28;20051;-76
2022/12/13 07:37:08;;;;;;;47.65;30.17;;;-3.70;99.90;;;;;;5068376;28;20109;-74
2022/12/13 07:39:36;;;;;;;52.13;30.77;;;-3.70;99.90;;;;;;5065069;28;20104;-76
2022/12/13 07:42:02;;;;;;;50.75;29.60;;;-3.80;99.90;;;;;;5068227;28;20055;-75
2022/12/13 07:44:28;;;;;;;58.65;34.40;;;-3.80;99.90;;;;;;5085890;28;20400;-82
2022/12/13 07:46:54;;;;;;;56.75;33.45;;;-3.80;99.90;;;;;;5092952;28;20051;-79
2022/12/13 07:49:20;;;;;;;57.38;33.05;;;-3.80;99.90;;;;;;5078121;28;20056;-81
2022/12/13 07:51:46;;;;;;;56.70;33.05;;;-3.90;99.90;;;;;;5063611;28;20038;-84
2022/12/13 07:54:11;;;;;;;58.65;34.58;;;-3.90;99.90;;;;;;5062130;28;20110;-86
2022/12/13 07:56:37;;;;;;;59.85;34.15;;;-3.90;99.90;;;;;;5060497;28;20132;-77
2022/12/13 07:59:02;;;;;;;56.35;32.30;;;-3.90;99.90;;;;;;5086643;28;20051;-80
2022/12/13 08:01:31;;;;;;;57.60;33.15;;;-3.90;99.90;;;;;;5069694;28;20044;-81
2022/12/13 08:03:56;;;;;;;61.53;33.78;;;-3.80;99.90;;;;;;5087663;28;20476;-82
2022/12/13 08:06:22;;;;;;;65.78;34.45;;;-3.80;99.90;;;;;;5089381;28;20036;-79
2022/12/13 08:08:49;;;;;;;55.17;32.20;;;-3.80;99.90;;;;;;5070864;28;20057;-76
2022/12/13 08:11:16;;;;;;;;;;;-3.80;99.90;;;;;;5089494;28;20524;-76
2022/12/13 08:13:41;;;;;;;54.88;30.48;;;-3.80;99.90;;;;;;5085941;28;19975;-77
2022/12/13 08:16:09;;;;;;;59.08;32.38;;;-3.80;99.90;;;;;;5087767;28;20132;-79
2022/12/13 08:18:35;;;;;;;52.55;31.77;;;-3.80;99.90;;;;;;5085575;28;20037;-82
2022/12/13 08:21:06;;;;;;;55.88;32.55;;;-3.80;99.90;;;;;;5087274;28;20318;-80
2022/12/13 08:23:32;;;;;;;56.90;32.63;;;-3.80;99.90;;;;;;5089423;28;20647;-76
2022/12/13 08:25:59;;;;;;;62.58;33.97;;;-3.80;99.90;;;;;;5088828;28;20040;-80
2022/12/13 08:28:25;;;;;;;56.33;33.50;;;-3.80;99.90;;;;;;5103559;28;20048;-85
2022/12/13 08:30:52;;;;;;;59.30;35.17;;;-3.70;99.90;;;;;;5072683;28;20795;-79
2022/12/13 08:33:19;;;;;;;59.03;34.90;;;-3.70;99.90;;;;;;5070629;28;20047;-75
2022/12/13 08:35:46;;;;;;;59.75;33.97;;;-3.60;99.90;;;;;;5088206;28;20057;-75
2022/12/13 08:38:12;;;;;;;62.60;34.80;;;-3.50;99.90;;;;;;5071569;28;20051;-79
2022/12/13 08:40:38;;;;;;;55.70;33.38;;;-3.40;99.90;;;;;;5068746;28;20059;-77
2022/12/13 08:43:04;;;;;;;56.78;33.90;;;-3.40;99.90;;;;;;5091247;28;20032;-76
2022/12/13 08:45:33;;;;;;;84.93;45.13;;;-3.40;99.90;;;;;;5075152;28;20458;-75
2022/12/13 08:48:00;;;;;;;67.07;39.03;;;-3.40;99.90;;;;;;5088849;28;20040;-78
2022/12/13 08:50:26;;;;;;;84.45;46.03;;;-3.30;99.90;;;;;;5097550;28;20052;-75
2022/12/13 08:52:52;;;;;;;95.80;49.85;;;-3.30;99.90;;;;;;5066108;28;20044;-76
2022/12/13 08:55:18;;;;;;;68.50;40.25;;;-3.30;99.90;;;;;;5066983;28;20052;-72
2022/12/13 08:57:44;;;;;;;66.07;36.75;;;-3.30;99.90;;;;;;5081455;28;20047;-77
2022/12/13 09:00:18;;;;;;;64.97;38.40;;;-3.30;99.90;;;;;;5086927;28;20044;-78
2022/12/13 09:02:43;;;;;;;63.40;37.15;;;-3.20;99.90;;;;;;5068850;28;20048;-78
2022/12/13 09:05:10;;;;;;;62.42;37.03;;;-3.10;99.90;;;;;;5086602;28;20044;-81
2022/12/13 09:07:38;;;;;;;60.15;36.03;;;-3.10;99.90;;;;;;5068025;28;20063;-76
2022/12/13 09:10:04;;;;;;;61.92;37.33;;;-3.10;99.90;;;;;;5085807;28;20119;-78
2022/12/13 09:12:30;;;;;;;61.53;36.70;;;-3.10;99.90;;;;;;5070506;28;20072;-78
2022/12/13 09:14:55;;;;;;;60.70;36.38;;;-3.00;99.90;;;;;;5086779;28;20478;-77
2022/12/13 09:17:21;;;;;;;68.18;38.03;;;-3.00;99.90;;;;;;5086299;28;20055;-79
2022/12/13 09:19:46;;;;;;;68.97;38.28;;;-2.90;99.90;;;;;;5063387;28;20119;-77
2022/12/13 09:22:12;;;;;;;67.50;39.28;;;-2.90;99.90;;;;;;5085308;28;20050;-80
2022/12/13 09:24:38;;;;;;;71.55;41.03;;;-2.80;99.90;;;;;;5087631;28;20122;-79
2022/12/13 09:27:04;;;;;;;68.70;40.35;;;-2.80;99.90;;;;;;5089558;28;20057;-80
2022/12/13 09:29:32;;;;;;;69.15;38.10;;;-2.70;99.90;;;;;;5077429;28;20032;-77
2022/12/13 09:31:57;;;;;;;;;;;-2.70;99.90;;;;;;5084315;28;20062;-78
2022/12/13 09:34:23;;;;;;;65.38;36.53;;;-2.70;99.90;;;;;;5066161;28;20424;-78
2022/12/13 09:36:49;;;;;;;63.05;38.92;;;-2.70;99.90;;;;;;5067122;28;20500;-75
2022/12/13 09:39:15;;;;;;;63.88;37.97;;;-2.60;99.90;;;;;;5067203;28;20119;-79
2022/12/13 09:41:45;;;;;;;62.95;37.10;;;-2.60;99.90;;;;;;5095408;28;20079;-80
2022/12/13 09:44:19;;;;;;;63.08;37.95;;;-2.60;99.90;;;;;;5066554;28;20040;-75
2022/12/13 09:46:47;;;;;;;67.90;38.05;;;-2.50;99.90;;;;;;5082566;28;20044;-76
2022/12/13 09:49:40;;;;;;;68.40;38.33;;;-2.50;99.90;;;;;;5099309;28;20052;-89
2022/12/13 09:52:10;;;;;;;69.63;40.30;;;-2.40;99.90;;;;;;5063963;28;20048;-86
2022/12/13 09:54:37;;;;;;;68.97;40.05;;;-2.40;99.90;;;;;;5067275;28;20089;-86
2022/12/13 09:57:03;;;;;;;70.30;40.30;;;-2.40;99.90;;;;;;5085950;28;20127;-81
2022/12/13 09:59:32;;;;;;;66.28;38.63;;;-2.30;99.90;;;;;;5062689;28;20139;-80
2022/12/13 10:02:13;;;;;;;71.97;41.45;;;-2.20;99.90;;;;;;5078494;28;20036;-78
2022/12/13 10:04:39;;;;;;;74.78;42.40;;;-2.30;99.90;;;;;;5083166;28;20534;-81
2022/12/13 10:07:22;;;;;;;64.75;40.40;;;-2.20;99.90;;;;;;5083931;28;20080;-85
2022/12/13 10:09:54;;;;;;;71.65;41.05;;;-2.20;99.90;;;;;;5064848;28;20056;-79
2022/12/13 10:12:20;;;;;;;69.07;41.20;;;-2.10;99.90;;;;;;5078909;28;20325;-80
2022/12/13 10:14:51;;;;;;;68.30;41.40;;;-2.10;99.90;;;;;;5085140;28;20480;-82
2022/12/13 10:17:20;;;;;;;69.90;41.95;;;-2.00;99.90;;;;;;5083985;28;20027;-77
2022/12/13 10:19:50;;;;;;;67.43;41.50;;;-2.00;99.90;;;;;;5063249;28;20047;-77
2022/12/13 10:22:18;;;;;;;66.53;40.58;;;-1.90;99.90;;;;;;5097892;27;20036;-85
2022/12/13 10:24:56;;;;;;;70.40;43.05;;;-1.90;99.90;;;;;;5081384;28;20050;-76
2022/12/13 10:27:36;;;;;;;71.82;42.97;;;-1.80;99.90;;;;;;5060082;28;20074;-79
2022/12/13 10:30:24;;;;;;;76.97;44.28;;;-1.80;99.90;;;;;;5073903;28;20598;-81
2022/12/13 10:32:55;;;;;;;76.50;44.55;;;-1.70;99.90;;;;;;5063989;28;20114;-79
2022/12/13 10:35:29;;;;;;;77.68;46.83;;;-1.70;99.90;;;;;;5094139;27;20040;-83
2022/12/13 10:37:58;;;;;;;75.82;44.92;;;-1.70;99.90;;;;;;5090944;28;20080;-80
2022/12/13 10:40:25;;;;;;;71.30;43.15;;;-1.60;99.90;;;;;;5065142;28;20081;-82
2022/12/13 10:43:17;;;;;;;74.88;44.97;;;-1.60;99.90;;;;;;5068117;28;20096;-78
2022/12/13 10:45:55;;;;;;;77.57;44.05;;;-1.60;99.90;;;;;;5085685;28;20052;-83
2022/12/13 10:48:25;;;;;;;74.55;43.92;;;-1.50;99.90;;;;;;5065805;28;20044;-85
2022/12/13 10:51:04;;;;;;;71.72;43.67;;;-1.50;99.90;;;;;;5082073;28;20044;-78
2022/12/13 10:53:50;;;;;;;71.13;43.60;;;-1.40;99.90;;;;;;5060964;28;20071;-81
2022/12/13 10:56:21;;;;;;;72.78;44.28;;;-1.30;99.90;;;;;;5095754;27;20047;-76
2022/12/13 10:59:07;;;;;;;72.30;43.45;;;-1.30;99.90;;;;;;5082753;28;20621;-76
2022/12/13 11:01:33;;;;;;;72.10;45.25;;;-1.20;99.90;;;;;;5079404;28;20083;-77
2022/12/13 11:04:19;;;;;;;72.97;48.13;;;-1.20;99.90;;;;;;5066947;28;20082;-75
2022/12/13 11:06:47;;;;;;;77.70;46.10;;;-1.20;99.90;;;;;;5050705;28;20052;-81
2022/12/13 11:09:31;;;;;;;73.40;45.88;;;-1.20;99.90;;;;;;5062893;28;20048;-80
2022/12/13 11:12:00;;;;;;;74.88;47.85;;;-1.10;99.90;;;;;;5073705;28;20048;-82
2022/12/13 11:14:34;;;;;;;74.40;46.30;;;-1.10;99.90;;;;;;5087255;28;20043;-79
2022/12/13 11:17:14;;;;;;;69.68;43.75;;;-1.10;99.90;;;;;;5082766;28;20126;-79
2022/12/13 11:19:49;;;;;;;67.15;42.47;;;-1.00;99.90;;;;;;5081830;28;20051;-81
2022/12/13 11:22:31;;;;;;;69.57;45.80;;;-1.00;99.90;;;;;;5062259;28;20048;-79
2022/12/13 11:25:07;;;;;;;71.95;46.67;;;-1.00;99.90;;;;;;5079595;28;20048;-76
2022/12/13 11:27:58;;;;;;;71.65;44.67;;;-1.00;99.90;;;;;;5082678;28;20048;-76
2022/12/13 11:30:50;;;;;;;73.32;45.22;;;-1.00;99.90;;;;;;5074774;28;20127;-82
2022/12/13 11:33:15;;;;;;;76.47;47.72;;;-0.90;99.90;;;;;;5076377;28;20068;-85
2022/12/13 11:36:05;;;;;;;69.82;44.92;;;-0.90;99.90;;;;;;5065087;28;20074;-77
2022/12/13 11:38:43;;;;;;;73.38;45.67;;;-0.90;99.90;;;;;;5068969;28;20048;-79
2022/12/13 11:41:23;;;;;;;69.75;44.03;;;-0.90;99.90;;;;;;5095999;27;20060;-86
2022/12/13 11:43:55;;;;;;;73.57;45.10;;;-0.80;99.90;;;;;;5067846;28;20735;-83
2022/12/13 11:46:37;;;;;;;70.47;44.47;;;-0.80;99.90;;;;;;5083288;28;20506;-84
2022/12/13 11:49:18;;;;;;;68.57;44.33;;;-0.80;99.90;;;;;;5061302;28;20074;-83
2022/12/13 11:51:52;;;;;;;72.70;46.13;;;-0.70;99.90;;;;;;5088085;28;20072;-83
2022/12/13 11:54:29;;;;;;;67.65;44.35;;;-0.70;99.90;;;;;;5077334;28;20041;-81
2022/12/13 11:56:57;;;;;;;69.45;42.75;;;-0.70;99.90;;;;;;5068497;28;20055;-81
2022/12/13 11:59:45;;;;;;;67.90;45.92;;;-0.70;99.90;;;;;;5065451;28;20039;-80
2022/12/13 12:02:24;;;;;;;70.00;44.47;;;-0.70;99.90;;;;;;5090127;28;20028;-79
2022/12/13 12:04:52;;;;;;;65.53;44.15;;;-0.60;99.90;;;;;;5086074;28;20075;-77
2022/12/13 12:07:27;;;;;;;;;;;-0.60;99.90;;;;;;5066790;28;20040;-76
2022/12/13 12:10:00;;;;;;;66.88;41.80;;;-0.60;99.90;;;;;;5083368;28;19927;-76
2022/12/13 12:12:31;;;;;;;69.80;43.78;;;-0.60;99.90;;;;;;5056096;28;20492;-74
2022/12/13 12:15:20;;;;;;;74.65;49.83;;;-0.60;99.90;;;;;;5084146;28;20063;-76
2022/12/13 12:17:47;;;;;;;77.75;47.22;;;-0.50;99.90;;;;;;5068646;28;20054;-77
2022/12/13 12:20:20;;;;;;;68.10;44.57;;;-0.50;99.90;;;;;;5083147;28;20097;-80
2022/12/13 12:23:06;;;;;;;76.63;51.22;;;-0.50;99.90;;;;;;5086933;28;20350;-79
2022/12/13 12:25:43;;;;;;;72.32;47.00;;;-0.50;99.90;;;;;;5084102;28;20373;-77
2022/12/13 12:28:17;;;;;;;68.28;46.70;;;-0.40;99.90;;;;;;5087101;28;20046;-77
2022/12/13 12:31:04;;;;;;;76.22;51.58;;;-0.40;99.90;;;;;;5088023;28;20048;-81
2022/12/13 12:33:52;;;;;;;68.63;47.10;;;-0.40;99.90;;;;;;5069084;28;20044;-77
2022/12/13 12:36:31;;;;;;;69.13;45.67;;;-0.30;99.90;;;;;;5067711;28;20032;-84
2022/12/13 12:39:18;;;;;;;69.63;44.38;;;-0.30;99.90;;;;;;5087027;28;20040;-79
2022/12/13 12:41:57;;;;;;;72.32;47.47;;;-0.30;99.90;;;;;;5076872;28;20044;-75
2022/12/13 12:44:28;;;;;;;68.93;46.08;;;-0.30;99.90;;;;;;5066049;28;20036;-75
2022/12/13 12:47:08;;;;;;;66.22;45.22;;;-0.30;99.90;;;;;;5086993;28;20040;-73